createdAt,value
2018-11-20T00:00:25.475Z,9.83
2018-11-20T00:03:11.696Z,9.07
2018-11-20T00:05:54.641Z,9.17
2018-11-20T00:08:41.071Z,9.43
2018-11-20T00:11:31.533Z,10.63
2018-11-20T00:14:20.958Z,10.17
2018-11-20T00:17:07.192Z,10.37
2018-11-20T00:20:09.771Z,10.50
2018-11-20T00:22:56.705Z,10.37
2018-11-20T00:25:50.237Z,11.13
2018-11-20T00:28:40.475Z,11.13
2018-11-20T00:31:24.068Z,10.67
2018-11-20T00:34:10.287Z,11.50
2018-11-20T00:36:56.679Z,10.70
2018-11-20T00:39:52.968Z,11.70
2018-11-20T00:42:49.396Z,11.53
2018-11-20T00:45:45.998Z,11.43
2018-11-20T00:48:32.084Z,10.90
2018-11-20T00:51:18.577Z,10.43
2018-11-20T00:54:09.099Z,12.17
2018-11-20T00:56:55.390Z,12.20
2018-11-20T00:59:42.093Z,11.97
2018-11-20T01:02:29.839Z,12.33
2018-11-20T01:05:20.137Z,11.73
2018-11-20T01:08:06.311Z,13.33
2018-11-20T01:10:52.512Z,12.40
2018-11-20T01:13:45.777Z,12.10
2018-11-20T01:16:51.337Z,13.13
2018-11-20T01:19:36.091Z,12.10
2018-11-20T01:22:38.675Z,13.43
2018-11-20T01:25:32.304Z,12.37
2018-11-20T01:28:38.231Z,13.10
2018-11-20T01:31:25.828Z,13.23
2018-11-20T01:34:16.114Z,12.53
2018-11-20T01:37:09.681Z,12.90
2018-11-20T01:39:45.109Z,13.60
2018-11-20T01:42:28.852Z,13.80
2018-11-20T01:45:28.418Z,13.43
2018-11-20T01:48:30.855Z,13.50
2018-11-20T01:51:17.373Z,14.07
2018-11-20T01:54:20.312Z,13.53
2018-11-20T01:56:59.028Z,13.53
2018-11-20T01:59:45.075Z,13.83
2018-11-20T02:02:31.034Z,12.87
2018-11-20T02:05:18.682Z,12.87
2018-11-20T02:08:06.304Z,13.50
2018-11-20T02:11:06.069Z,14.10
2018-11-20T02:14:03.815Z,13.53
2018-11-20T02:16:45.437Z,14.30
2018-11-20T02:19:31.541Z,14.57
2018-11-20T02:22:17.987Z,13.37
2018-11-20T02:25:05.505Z,13.00
2018-11-20T02:27:53.439Z,12.70
2018-11-20T02:30:41.725Z,12.83
2018-11-20T02:33:26.310Z,13.60
2018-11-20T02:36:11.716Z,13.40
2018-11-20T02:38:59.343Z,12.07
2018-11-20T02:41:52.999Z,13.20
2018-11-20T02:44:39.028Z,12.53
2018-11-20T02:47:24.941Z,13.97
2018-11-20T02:50:11.411Z,12.77
2018-11-20T02:52:49.941Z,12.83
2018-11-20T02:55:31.705Z,12.60
2018-11-20T02:58:28.462Z,14.03
2018-11-20T03:01:14.009Z,12.87
2018-11-20T03:04:13.859Z,14.33
2018-11-20T03:06:50.515Z,14.03
2018-11-20T03:09:38.122Z,13.33
2018-11-20T03:12:24.110Z,13.20
2018-11-20T03:15:10.417Z,12.53
2018-11-20T03:17:55.724Z,13.53
2018-11-20T03:20:38.135Z,13.57
2018-11-20T03:23:25.878Z,13.33
2018-11-20T03:26:20.986Z,13.83
2018-11-20T03:29:30.999Z,12.87
2018-11-20T03:32:10.664Z,13.37
2018-11-20T03:34:50.492Z,12.70
2018-11-20T03:37:44.062Z,12.27
2018-11-20T03:40:32.335Z,12.77
2018-11-20T03:43:32.058Z,12.67
2018-11-20T03:46:19.669Z,12.33
2018-11-20T03:49:05.992Z,13.70
2018-11-20T03:51:52.528Z,12.20
2018-11-20T03:54:38.799Z,13.00
2018-11-20T03:57:20.368Z,12.80
2018-11-20T04:00:09.472Z,12.73
2018-11-20T04:03:05.981Z,11.97
2018-11-20T04:05:56.388Z,14.00
2018-11-20T04:08:49.945Z,12.03
2018-11-20T04:11:30.101Z,11.93
2018-11-20T04:14:16.353Z,12.50
2018-11-20T04:17:02.703Z,13.03
2018-11-20T04:20:02.322Z,12.63
2018-11-20T04:22:42.930Z,12.43
2018-11-20T04:25:28.946Z,12.77
2018-11-20T04:28:10.044Z,12.43
2018-11-20T04:31:01.629Z,12.33
2018-11-20T04:34:04.880Z,13.50
2018-11-20T04:37:42.448Z,13.83
2018-11-20T04:40:17.291Z,12.67
2018-11-20T04:43:13.921Z,12.43
2018-11-20T04:46:02.361Z,12.60
2018-11-20T04:48:38.110Z,13.60
2018-11-20T04:51:24.989Z,13.97
2018-11-20T04:54:21.244Z,13.17
2018-11-20T04:57:07.588Z,12.87
2018-11-20T04:59:53.341Z,12.97
2018-11-20T05:02:40.539Z,13.93
2018-11-20T05:05:25.986Z,13.27
2018-11-20T05:08:28.175Z,14.13
2018-11-20T05:11:17.038Z,14.00
2018-11-20T05:14:21.939Z,13.53
2018-11-20T05:17:15.132Z,12.50
2018-11-20T05:20:00.879Z,13.17
2018-11-20T05:22:46.363Z,13.30
2018-11-20T05:25:31.745Z,15.07
2018-11-20T05:28:17.891Z,13.20
2018-11-20T05:31:05.097Z,13.77
2018-11-20T05:33:50.737Z,13.80
2018-11-20T05:36:40.823Z,13.43
2018-11-20T05:39:29.924Z,13.83
2018-11-20T05:42:06.224Z,14.80
2018-11-20T05:44:52.009Z,12.97
2018-11-20T05:47:39.006Z,13.40
2018-11-20T05:50:24.849Z,13.93
2018-11-20T05:53:15.197Z,16.97
2018-11-20T05:56:00.624Z,15.03
2018-11-20T05:58:48.121Z,14.87
2018-11-20T06:01:30.747Z,15.00
2018-11-20T06:04:17.981Z,13.33
2018-11-20T06:06:58.441Z,13.30
2018-11-20T06:09:43.887Z,15.30
2018-11-20T06:12:29.516Z,14.80
2018-11-20T06:15:15.021Z,14.33
2018-11-20T06:17:58.460Z,15.37
2018-11-20T06:20:42.981Z,14.93
2018-11-20T06:23:26.355Z,15.43
2018-11-20T06:26:19.566Z,20.70
2018-11-20T06:28:56.946Z,16.07
2018-11-20T06:31:44.035Z,15.17
2018-11-20T06:34:31.412Z,15.50
2018-11-20T06:37:21.528Z,14.33
2018-11-20T06:40:07.325Z,14.47
2018-11-20T06:42:52.965Z,14.87
2018-11-20T06:45:38.605Z,15.50
2018-11-20T06:48:40.511Z,14.63
2018-11-20T06:51:31.870Z,14.73
2018-11-20T06:54:17.203Z,13.93
2018-11-20T06:57:03.778Z,13.73
2018-11-20T06:59:56.759Z,15.83
2018-11-20T07:02:49.657Z,14.80
2018-11-20T07:05:35.409Z,13.90
2018-11-20T07:08:20.901Z,13.73
2018-11-20T07:10:59.609Z,14.70
2018-11-20T07:13:50.882Z,14.60
2018-11-20T07:16:50.845Z,15.27
2018-11-20T07:19:45.332Z,15.27
2018-11-20T07:22:25.978Z,13.90
2018-11-20T07:25:15.669Z,15.60
2018-11-20T07:28:01.403Z,14.47
2018-11-20T07:31:03.666Z,14.97
2018-11-20T07:33:50.857Z,15.70
2018-11-20T07:36:46.604Z,14.97
2018-11-20T07:39:32.308Z,13.97
2018-11-20T07:42:24.324Z,15.37
2018-11-20T07:45:14.285Z,15.03
2018-11-20T07:48:16.862Z,14.77
2018-11-20T07:51:02.651Z,15.23
2018-11-20T07:53:58.754Z,15.03
2018-11-20T07:56:45.955Z,14.93
2018-11-20T07:59:44.986Z,15.40
2018-11-20T08:02:20.915Z,13.50
2018-11-20T08:05:05.302Z,15.20
2018-11-20T08:07:50.776Z,14.90
2018-11-20T08:10:36.169Z,15.57
2018-11-20T08:13:29.528Z,15.03
2018-11-20T08:16:12.991Z,15.53
2018-11-20T08:18:58.959Z,14.70
2018-11-20T08:21:51.894Z,15.33
2018-11-20T08:24:46.088Z,14.23
2018-11-20T08:27:39.498Z,15.80
2018-11-20T08:30:27.400Z,14.47
2018-11-20T08:33:32.928Z,14.77
2018-11-20T08:36:25.643Z,14.80
2018-11-20T08:39:21.710Z,14.43
2018-11-20T08:42:11.511Z,14.17
2018-11-20T08:44:57.345Z,14.43
2018-11-20T08:47:43.161Z,14.50
2018-11-20T08:50:21.179Z,16.27
2018-11-20T08:52:58.000Z,15.70
2018-11-20T08:55:39.659Z,15.70
2018-11-20T08:58:26.881Z,14.83
2018-11-20T09:01:25.852Z,15.00
2018-11-20T09:04:15.836Z,14.60
2018-11-20T09:06:52.906Z,14.20
2018-11-20T09:09:38.665Z,14.97
2018-11-20T09:12:16.109Z,13.90
2018-11-20T09:15:03.428Z,13.77
2018-11-20T09:18:05.845Z,15.30
2018-11-20T09:20:51.530Z,14.30
2018-11-20T09:23:47.207Z,15.77
2018-11-20T09:26:30.341Z,14.23
2018-11-20T09:29:17.562Z,14.30
2018-11-20T09:32:06.458Z,15.43
2018-11-20T09:34:52.328Z,15.70
2018-11-20T09:37:37.026Z,15.43
2018-11-20T09:40:48.170Z,13.83
2018-11-20T09:43:38.332Z,14.87
2018-11-20T09:46:23.823Z,15.03
2018-11-20T09:49:09.507Z,15.97
2018-11-20T09:51:50.699Z,15.90
2018-11-20T09:54:49.215Z,14.70
2018-11-20T09:57:33.682Z,15.03
2018-11-20T10:00:18.203Z,15.47
2018-11-20T10:03:04.605Z,15.00
2018-11-20T10:05:57.387Z,15.13
2018-11-20T10:08:43.782Z,14.63
2018-11-20T10:11:29.391Z,14.93
2018-11-20T10:14:15.162Z,15.70
2018-11-20T10:17:07.972Z,16.40
2018-11-20T10:20:04.207Z,16.30
2018-11-20T10:23:03.076Z,14.87
2018-11-20T10:25:44.431Z,14.97
2018-11-20T10:28:37.349Z,15.90
2018-11-20T10:31:22.804Z,15.60
2018-11-20T10:34:03.829Z,15.13
2018-11-20T10:36:53.887Z,14.97
2018-11-20T10:39:47.088Z,15.40
2018-11-20T10:42:32.855Z,15.83
2018-11-20T10:45:19.107Z,14.97
2018-11-20T10:48:01.701Z,15.60
2018-11-20T10:50:47.246Z,15.57
2018-11-20T10:53:42.995Z,15.07
2018-11-20T10:56:45.164Z,15.27
2018-11-20T10:59:30.736Z,14.97
2018-11-20T11:02:16.345Z,16.37
2018-11-20T11:05:02.066Z,16.03
2018-11-20T11:07:48.362Z,15.17
2018-11-20T11:10:41.371Z,14.63
2018-11-20T11:13:28.577Z,15.57
2018-11-20T11:16:20.309Z,15.63
2018-11-20T11:19:10.612Z,18.60
2018-11-20T11:21:56.372Z,15.13
2018-11-20T11:24:42.187Z,14.50
2018-11-20T11:27:27.660Z,14.67
2018-11-20T11:30:13.487Z,14.33
2018-11-20T11:32:59.208Z,14.33
2018-11-20T11:35:36.820Z,15.17
2018-11-20T11:38:26.718Z,14.47
2018-11-20T11:41:12.634Z,14.53
2018-11-20T11:44:02.747Z,15.37
2018-11-20T11:46:49.937Z,14.30
2018-11-20T11:49:35.676Z,15.13
2018-11-20T11:52:10.112Z,15.87
2018-11-20T11:54:46.063Z,15.17
2018-11-20T11:57:51.303Z,15.63
2018-11-20T12:00:38.507Z,15.00
2018-11-20T12:03:20.374Z,14.47
2018-11-20T12:06:07.603Z,15.80
2018-11-20T12:08:46.626Z,15.97
2018-11-20T12:11:32.322Z,14.53
2018-11-20T12:14:19.799Z,16.07
2018-11-20T12:17:13.911Z,17.20
2018-11-20T12:19:50.183Z,15.03
2018-11-20T12:22:35.677Z,15.70
2018-11-20T12:25:21.439Z,15.80
2018-11-20T12:28:05.291Z,16.90
2018-11-20T12:30:40.665Z,14.77
2018-11-20T12:33:18.416Z,16.10
2018-11-20T12:36:03.101Z,16.40
2018-11-20T12:38:50.304Z,15.83
2018-11-20T12:41:36.093Z,15.77
2018-11-20T12:44:26.301Z,16.07
2018-11-20T12:47:15.213Z,14.93
2018-11-20T12:50:18.840Z,15.90
2018-11-20T12:53:14.755Z,15.67
2018-11-20T12:56:03.117Z,14.67
2018-11-20T12:58:50.333Z,14.07
2018-11-20T13:01:36.127Z,13.37
2018-11-20T13:04:41.550Z,12.70
2018-11-20T13:07:22.935Z,11.47
2018-11-20T13:10:14.294Z,11.20
2018-11-20T13:13:13.312Z,11.10
2018-11-20T13:15:49.409Z,11.37
2018-11-20T13:18:41.514Z,11.17
2018-11-20T13:21:22.327Z,11.17
2018-11-20T13:24:18.186Z,10.40
2018-11-20T13:27:03.743Z,11.70
2018-11-20T13:30:05.862Z,11.00
2018-11-20T13:32:53.117Z,9.70
2018-11-20T13:35:46.811Z,10.90
2018-11-20T13:38:25.462Z,11.43
2018-11-20T13:41:20.606Z,10.10
2018-11-20T13:43:59.416Z,10.33
2018-11-20T13:46:40.801Z,9.60
2018-11-20T13:49:33.429Z,10.40
2018-11-20T13:52:20.623Z,12.37
2018-11-20T13:55:19.894Z,10.30
2018-11-20T13:58:05.762Z,9.80
2018-11-20T14:00:51.280Z,10.33
2018-11-20T14:03:42.794Z,9.77
2018-11-20T14:06:23.845Z,9.47
2018-11-20T14:09:19.296Z,10.40
2018-11-20T14:12:06.546Z,10.17
2018-11-20T14:14:51.817Z,10.30
2018-11-20T14:17:44.224Z,10.90
2018-11-20T14:20:40.329Z,10.43
2018-11-20T14:23:30.409Z,9.60
2018-11-20T14:26:15.997Z,10.60
2018-11-20T14:28:57.765Z,10.20
2018-11-20T14:31:47.571Z,10.03
2018-11-20T14:34:26.829Z,10.37
2018-11-20T14:37:11.791Z,10.90
2018-11-20T14:40:01.543Z,11.03
2018-11-20T14:42:52.995Z,13.77
2018-11-20T14:45:40.308Z,13.87
2018-11-20T14:48:42.281Z,15.43
2018-11-20T14:51:29.999Z,15.37
2018-11-20T14:54:07.340Z,13.67
2018-11-20T14:56:48.144Z,14.67
2018-11-20T14:59:34.054Z,26.63
2018-11-20T15:02:19.487Z,16.33
2018-11-20T15:05:01.135Z,15.30
2018-11-20T15:07:46.587Z,14.73
2018-11-20T15:10:36.606Z,15.80
2018-11-20T15:13:22.356Z,14.07
2018-11-20T15:16:27.615Z,15.30
2018-11-20T15:19:27.660Z,15.00
2018-11-20T15:22:21.624Z,14.93
2018-11-20T15:25:14.673Z,14.27
2018-11-20T15:27:53.569Z,13.90
2018-11-20T15:30:39.183Z,15.63
2018-11-20T15:33:24.641Z,16.03
2018-11-20T15:36:20.876Z,14.97
2018-11-20T15:38:55.333Z,14.80
2018-11-20T15:41:36.710Z,14.30
2018-11-20T15:44:41.988Z,15.83
2018-11-20T15:47:23.571Z,14.97
2018-11-20T15:50:19.645Z,15.07
2018-11-20T15:53:21.877Z,17.23
2018-11-20T15:56:14.692Z,14.47
2018-11-20T15:59:00.834Z,14.60
2018-11-20T16:01:46.571Z,14.20
2018-11-20T16:04:34.699Z,13.80
2018-11-20T16:07:30.453Z,13.47
2018-11-20T16:10:03.805Z,14.30
2018-11-20T16:12:39.575Z,13.63
2018-11-20T16:15:35.601Z,13.70
2018-11-20T16:18:10.399Z,14.27
2018-11-20T16:21:05.660Z,14.23
2018-11-20T16:24:03.733Z,13.43
2018-11-20T16:26:49.357Z,13.63
2018-11-20T16:29:48.601Z,13.57
2018-11-20T16:32:45.498Z,13.40
2018-11-20T16:35:38.678Z,13.70
2018-11-20T16:38:26.083Z,15.13
2018-11-20T16:41:31.105Z,15.00
2018-11-20T16:44:18.618Z,14.13
2018-11-20T16:47:04.256Z,14.20
2018-11-20T16:49:52.177Z,12.53
2018-11-20T16:52:54.344Z,13.10
2018-11-20T16:55:37.542Z,14.03
2018-11-20T16:58:19.906Z,14.23
2018-11-20T17:01:22.264Z,13.77
2018-11-20T17:04:04.984Z,13.53
2018-11-20T17:07:04.020Z,14.67
2018-11-20T17:09:49.508Z,13.60
2018-11-20T17:12:36.726Z,14.53
2018-11-20T17:15:31.493Z,14.90
2018-11-20T17:18:10.389Z,13.63
2018-11-20T17:21:03.838Z,15.10
2018-11-20T17:23:53.699Z,13.83
2018-11-20T17:26:55.426Z,14.10
2018-11-20T17:29:41.127Z,13.13
2018-11-20T17:32:43.150Z,20.37
2018-11-20T17:35:28.946Z,13.43
2018-11-20T17:38:14.598Z,16.33
2018-11-20T17:41:00.514Z,15.90
2018-11-20T17:43:50.490Z,15.53
2018-11-20T17:46:30.097Z,16.20
2018-11-20T17:49:25.501Z,14.93
2018-11-20T17:52:24.977Z,14.50
2018-11-20T17:55:10.726Z,14.87
2018-11-20T17:58:16.096Z,14.80
2018-11-20T18:01:01.650Z,14.67
2018-11-20T18:03:47.342Z,13.87
2018-11-20T18:06:52.540Z,12.73
2018-11-20T18:09:38.133Z,13.73
2018-11-20T18:12:23.612Z,13.97
2018-11-20T18:15:09.506Z,13.57
2018-11-20T18:18:05.652Z,13.97
2018-11-20T18:20:58.601Z,12.23
2018-11-20T18:23:40.029Z,13.73
2018-11-20T18:26:26.037Z,13.73
2018-11-20T18:29:11.680Z,12.80
2018-11-20T18:31:57.211Z,14.43
2018-11-20T18:34:50.197Z,14.83
2018-11-20T18:37:31.251Z,13.67
2018-11-20T18:40:29.108Z,14.37
2018-11-20T18:43:08.177Z,13.73
2018-11-20T18:46:07.364Z,13.87
2018-11-20T18:48:49.994Z,14.67
2018-11-20T18:51:27.123Z,14.17
2018-11-20T18:54:14.785Z,13.60
2018-11-20T18:57:00.193Z,14.43
2018-11-20T18:59:46.280Z,14.20
2018-11-20T19:02:32.097Z,13.47
2018-11-20T19:05:13.837Z,13.53
2018-11-20T19:08:01.011Z,15.57
2018-11-20T19:11:03.095Z,15.07
2018-11-20T19:13:48.727Z,13.77
2018-11-20T19:16:36.143Z,13.13
2018-11-20T19:19:26.627Z,13.40
2018-11-20T19:22:12.159Z,12.93
2018-11-20T19:25:08.803Z,13.47
2018-11-20T19:27:54.553Z,12.87
2018-11-20T19:30:40.819Z,16.03
2018-11-20T19:33:43.073Z,15.10
2018-11-20T19:36:25.200Z,13.23
2018-11-20T19:39:21.274Z,13.47
2018-11-20T19:42:07.746Z,13.57
2018-11-20T19:44:53.647Z,13.10
2018-11-20T19:47:39.619Z,12.60
2018-11-20T19:50:33.589Z,12.83
2018-11-20T19:53:19.316Z,13.17
2018-11-20T19:56:09.383Z,14.03
2018-11-20T19:58:59.819Z,14.13
2018-11-20T20:01:49.878Z,12.97
2018-11-20T20:04:46.070Z,14.07
2018-11-20T20:07:35.846Z,12.87
2018-11-20T20:10:41.886Z,13.13
2018-11-20T20:13:21.816Z,18.77
2018-11-20T20:16:07.521Z,14.17
2018-11-20T20:18:57.511Z,12.93
2018-11-20T20:22:02.513Z,13.23
2018-11-20T20:24:58.500Z,12.17
2018-11-20T20:27:54.828Z,12.73
2018-11-20T20:30:40.867Z,13.53
2018-11-20T20:33:43.016Z,13.20
2018-11-20T20:36:25.732Z,12.27
2018-11-20T20:39:11.599Z,13.27
2018-11-20T20:42:18.139Z,12.73
2018-11-20T20:45:03.883Z,13.37
2018-11-20T20:47:56.835Z,12.83
2018-11-20T20:50:33.347Z,12.27
2018-11-20T20:53:18.902Z,12.57
2018-11-20T20:56:14.994Z,12.27
2018-11-20T20:59:05.290Z,12.63
2018-11-20T21:01:51.184Z,13.27
2018-11-20T21:04:45.980Z,12.50
2018-11-20T21:07:31.929Z,13.37
2018-11-20T21:10:17.748Z,12.27
2018-11-20T21:12:56.990Z,13.77
2018-11-20T21:15:36.367Z,13.13
2018-11-20T21:18:22.211Z,13.80
2018-11-20T21:21:08.533Z,13.50
2018-11-20T21:24:06.513Z,13.53
2018-11-20T21:26:53.877Z,12.73
2018-11-20T21:29:56.089Z,12.67
2018-11-20T21:32:46.180Z,12.07
2018-11-20T21:35:39.217Z,12.10
2018-11-20T21:38:22.353Z,15.35
2018-11-20T21:41:09.547Z,14.20
2018-11-20T21:44:07.364Z,12.10
2018-11-20T21:46:49.638Z,14.03
2018-11-20T21:49:55.110Z,13.47
2018-11-20T21:52:45.010Z,13.00
2018-11-20T21:55:31.176Z,12.93
2018-11-20T21:58:30.291Z,14.13
2018-11-20T22:01:17.510Z,13.20
2018-11-20T22:04:03.405Z,13.63
2018-11-20T22:06:59.420Z,12.70
2018-11-20T22:09:45.192Z,13.57
2018-11-20T22:12:30.986Z,12.90
2018-11-20T22:15:16.753Z,12.87
2018-11-20T22:18:02.776Z,13.70
2018-11-20T22:21:09.400Z,13.63
2018-11-20T22:26:53.401Z,13.13
2018-11-20T22:30:00.064Z,13.10
2018-11-20T22:35:48.985Z,13.30
2018-11-20T22:38:34.769Z,13.70
2018-11-20T22:41:39.846Z,13.23
2018-11-20T22:44:27.520Z,12.50
2018-11-20T22:47:32.673Z,13.30
2018-11-20T22:50:19.963Z,13.90
2018-11-20T22:52:59.212Z,12.33
2018-11-20T22:55:49.291Z,13.40
2018-11-20T22:58:47.694Z,14.80
2018-11-20T23:04:50.178Z,13.63
2018-11-20T23:07:36.196Z,13.83
2018-11-20T23:10:24.774Z,13.60
2018-11-20T23:13:12.144Z,13.77
2018-11-20T23:18:38.407Z,12.93
2018-11-20T23:21:25.805Z,14.10
2018-11-20T23:26:52.577Z,14.00
2018-11-20T23:29:20.603Z,13.93
2018-11-20T23:31:48.626Z,14.13
2018-11-20T23:34:35.966Z,13.63
2018-11-20T23:40:03.044Z,12.97
2018-11-20T23:42:50.408Z,13.63
2018-11-20T23:48:17.196Z,14.23
2018-11-20T23:51:04.539Z,13.93
2018-11-20T23:53:51.870Z,14.17
2018-11-20T23:56:19.826Z,14.10
2018-11-20T23:59:07.234Z,13.17
